createdAt,value
2018-12-18T00:00:54.345Z,27.50
2018-12-18T00:03:23.833Z,21.37
2018-12-18T00:05:53.092Z,26.77
2018-12-18T00:08:22.462Z,24.00
2018-12-18T00:10:57.068Z,24.97
2018-12-18T00:13:26.307Z,24.73
2018-12-18T00:15:55.504Z,20.23
2018-12-18T00:18:24.853Z,22.60
2018-12-18T00:20:54.191Z,22.80
2018-12-18T00:23:23.453Z,24.30
2018-12-18T00:25:52.701Z,23.33
2018-12-18T00:28:22.718Z,22.73
2018-12-18T00:30:51.967Z,23.80
2018-12-18T00:33:21.308Z,26.00
2018-12-18T00:35:50.604Z,23.53
2018-12-18T00:38:19.948Z,20.33
2018-12-18T00:40:49.218Z,28.10
2018-12-18T00:43:18.529Z,21.00
2018-12-18T00:45:47.991Z,28.10
2018-12-18T00:48:18.153Z,23.43
2018-12-18T00:50:47.725Z,22.37
2018-12-18T00:53:16.940Z,24.27
2018-12-18T00:55:46.258Z,27.07
2018-12-18T00:58:15.522Z,24.17
2018-12-18T01:00:44.815Z,22.67
2018-12-18T01:03:14.209Z,20.90
2018-12-18T01:05:44.455Z,22.87
2018-12-18T01:08:13.722Z,21.40
2018-12-18T01:10:43.895Z,18.97
2018-12-18T01:13:13.504Z,22.17
2018-12-18T01:15:42.804Z,28.57
2018-12-18T01:18:12.171Z,21.50
2018-12-18T01:20:41.416Z,24.03
2018-12-18T01:23:10.648Z,22.27
2018-12-18T01:25:39.952Z,21.93
2018-12-18T01:28:09.256Z,26.27
2018-12-18T01:30:38.464Z,22.93
2018-12-18T01:33:08.759Z,21.27
2018-12-18T01:35:38.767Z,22.13
2018-12-18T01:38:07.974Z,23.33
2018-12-18T01:40:37.279Z,22.00
2018-12-18T01:43:06.508Z,22.13
2018-12-18T01:45:35.751Z,18.93
2018-12-18T01:48:05.107Z,20.03
2018-12-18T01:50:34.415Z,23.13
2018-12-18T01:53:03.687Z,21.20
2018-12-18T01:55:39.637Z,20.37
2018-12-18T01:58:11.725Z,20.27
2018-12-18T02:00:41.120Z,21.53
2018-12-18T02:03:10.334Z,18.83
2018-12-18T02:05:40.352Z,20.57
2018-12-18T02:08:09.615Z,20.10
2018-12-18T02:10:39.352Z,18.97
2018-12-18T02:13:15.191Z,19.20
2018-12-18T02:15:44.445Z,21.27
2018-12-18T02:18:14.426Z,19.90
2018-12-18T02:20:43.627Z,24.10
2018-12-18T02:23:12.870Z,20.37
2018-12-18T02:25:42.107Z,17.23
2018-12-18T02:30:46.735Z,18.20
2018-12-18T02:33:16.115Z,19.90
2018-12-18T02:35:45.414Z,18.37
2018-12-18T02:38:14.660Z,17.37
2018-12-18T02:40:43.933Z,18.83
2018-12-18T02:43:13.209Z,18.97
2018-12-18T02:45:42.472Z,16.33
2018-12-18T02:48:11.680Z,16.37
2018-12-18T02:50:40.937Z,14.67
2018-12-18T02:53:10.210Z,19.27
2018-12-18T02:55:39.536Z,18.70
2018-12-18T02:58:09.113Z,18.77
2018-12-18T03:00:38.349Z,15.80
2018-12-18T03:03:07.679Z,18.53
2018-12-18T03:05:36.979Z,21.00
2018-12-18T03:08:06.300Z,18.57
2018-12-18T03:10:35.519Z,18.90
2018-12-18T03:13:05.034Z,16.50
2018-12-18T03:15:34.295Z,15.97
2018-12-18T03:18:04.579Z,17.60
2018-12-18T03:20:34.180Z,17.80
2018-12-18T03:23:03.427Z,19.20
2018-12-18T03:25:32.950Z,17.17
2018-12-18T03:28:02.166Z,20.67
2018-12-18T03:30:31.458Z,18.30
2018-12-18T03:33:00.926Z,20.03
2018-12-18T03:35:30.185Z,17.13
2018-12-18T03:37:59.636Z,19.40
2018-12-18T03:40:28.820Z,16.17
2018-12-18T03:42:58.049Z,19.63
2018-12-18T03:45:27.589Z,19.63
2018-12-18T03:47:56.826Z,19.27
2018-12-18T03:50:26.602Z,17.43
2018-12-18T03:52:55.827Z,30.67
2018-12-18T03:55:25.080Z,24.37
2018-12-18T03:57:54.374Z,20.33
2018-12-18T04:00:24.296Z,22.13
2018-12-18T04:02:53.573Z,18.77
2018-12-18T04:05:23.949Z,21.33
2018-12-18T04:07:53.195Z,18.90
2018-12-18T04:10:22.622Z,22.17
2018-12-18T04:12:52.123Z,17.53
2018-12-18T04:15:21.451Z,18.90
2018-12-18T04:17:50.720Z,21.37
2018-12-18T04:20:20.214Z,18.13
2018-12-18T04:22:49.427Z,20.97
2018-12-18T04:25:18.692Z,18.77
2018-12-18T04:27:47.876Z,19.47
2018-12-18T04:30:17.145Z,18.60
2018-12-18T04:32:46.381Z,21.83
2018-12-18T04:35:15.631Z,18.73
2018-12-18T04:37:44.876Z,18.17
2018-12-18T04:40:14.843Z,17.83
2018-12-18T04:42:44.031Z,24.03
2018-12-18T04:45:13.345Z,22.10
2018-12-18T04:47:42.657Z,23.77
2018-12-18T04:50:12.022Z,21.47
2018-12-18T04:52:41.295Z,23.00
2018-12-18T04:55:10.532Z,20.37
2018-12-18T04:57:39.748Z,21.23
2018-12-18T05:00:10.337Z,22.83
2018-12-18T05:02:39.570Z,25.53
2018-12-18T05:05:09.123Z,22.03
2018-12-18T05:07:38.974Z,22.80
2018-12-18T05:10:08.441Z,20.00
2018-12-18T05:12:39.073Z,21.00
2018-12-18T05:15:08.364Z,21.57
2018-12-18T05:17:37.590Z,26.30
2018-12-18T05:20:06.979Z,26.60
2018-12-18T05:22:36.214Z,33.27
2018-12-18T05:25:06.555Z,30.67
2018-12-18T05:27:36.076Z,25.10
2018-12-18T05:30:06.555Z,26.43
2018-12-18T05:32:35.858Z,25.67
2018-12-18T05:35:06.138Z,41.70
2018-12-18T05:37:35.329Z,31.67
2018-12-18T05:40:05.160Z,34.47
2018-12-18T05:42:34.814Z,36.97
2018-12-18T05:45:04.754Z,40.43
2018-12-18T05:47:34.016Z,40.90
2018-12-18T05:50:03.424Z,39.93
2018-12-18T05:52:32.707Z,52.33
2018-12-18T05:55:02.116Z,49.90
2018-12-18T05:57:31.521Z,42.23
2018-12-18T06:00:00.857Z,36.67
2018-12-18T06:02:30.154Z,35.97
2018-12-18T06:05:03.193Z,37.97
2018-12-18T06:07:30.693Z,40.63
2018-12-18T06:10:00.324Z,36.20
2018-12-18T06:12:29.672Z,33.20
2018-12-18T06:14:59.084Z,32.10
2018-12-18T06:17:28.392Z,36.37
2018-12-18T06:19:57.845Z,41.00
2018-12-18T06:22:27.239Z,35.33
2018-12-18T06:24:56.528Z,34.63
2018-12-18T06:27:26.314Z,32.50
2018-12-18T06:29:55.723Z,34.03
2018-12-18T06:32:26.043Z,40.87
2018-12-18T06:34:55.299Z,45.70
2018-12-18T06:37:24.564Z,39.23
2018-12-18T06:39:54.928Z,40.47
2018-12-18T06:42:24.273Z,34.53
2018-12-18T06:44:53.666Z,31.37
2018-12-18T06:47:22.917Z,37.30
2018-12-18T06:49:52.307Z,33.77
2018-12-18T07:11:38.150Z,31.10
2018-12-18T07:14:07.418Z,31.93
2018-12-18T07:16:36.716Z,31.00
2018-12-18T07:19:06.193Z,25.07
2018-12-18T07:21:35.481Z,26.77
2018-12-18T07:24:06.783Z,28.47
2018-12-18T07:26:36.074Z,29.10
2018-12-18T07:29:06.329Z,28.53
2018-12-18T07:31:36.785Z,25.07
2018-12-18T07:34:08.230Z,27.93
2018-12-18T07:36:38.537Z,27.00
2018-12-18T07:39:10.258Z,27.97
2018-12-18T07:41:39.527Z,29.53
2018-12-18T07:44:08.898Z,27.13
2018-12-18T07:46:38.159Z,26.57
2018-12-18T07:49:07.361Z,27.80
2018-12-18T07:51:36.648Z,27.47
2018-12-18T07:54:05.921Z,28.03
2018-12-18T07:56:35.212Z,28.63
2018-12-18T07:59:04.508Z,31.33
2018-12-18T08:01:34.355Z,29.23
2018-12-18T08:04:04.010Z,30.17
2018-12-18T08:06:33.551Z,29.53
2018-12-18T08:09:02.806Z,26.37
2018-12-18T08:11:32.142Z,28.93
2018-12-18T08:14:01.455Z,30.97
2018-12-18T08:16:30.688Z,31.40
2018-12-18T08:19:00.237Z,27.50
2018-12-18T08:21:29.473Z,31.37
2018-12-18T08:23:58.916Z,29.83
2018-12-18T08:26:28.150Z,34.53
2018-12-18T08:28:57.380Z,35.20
2018-12-18T08:31:27.257Z,33.20
2018-12-18T08:33:56.545Z,32.70
2018-12-18T08:36:25.790Z,34.97
2018-12-18T08:38:55.051Z,34.27
2018-12-18T08:41:24.633Z,33.00
2018-12-18T08:43:53.931Z,29.33
2018-12-18T08:46:23.209Z,36.20
2018-12-18T08:48:52.455Z,32.67
2018-12-18T08:51:21.689Z,28.97
2018-12-18T08:53:50.971Z,33.03
2018-12-18T08:56:20.282Z,30.67
2018-12-18T08:58:49.554Z,35.03
2018-12-18T09:01:18.946Z,36.60
2018-12-18T09:03:48.317Z,33.07
2018-12-18T09:06:17.671Z,38.87
2018-12-18T09:08:47.305Z,39.30
2018-12-18T09:11:16.632Z,34.33
2018-12-18T09:13:45.917Z,38.93
2018-12-18T09:16:20.503Z,46.00
2018-12-18T09:18:49.822Z,41.50
2018-12-18T09:21:19.127Z,40.13
2018-12-18T09:23:48.412Z,39.40
2018-12-18T09:26:17.770Z,47.23
2018-12-18T09:28:47.074Z,43.70
2018-12-18T09:31:16.457Z,42.27
2018-12-18T09:33:46.286Z,38.10
2018-12-18T09:36:15.574Z,38.63
2018-12-18T09:38:50.086Z,42.97
2018-12-18T09:41:24.437Z,45.97
2018-12-18T09:43:55.767Z,42.43
2018-12-18T09:46:25.024Z,45.23
2018-12-18T09:48:54.259Z,39.87
2018-12-18T09:51:23.739Z,42.40
2018-12-18T09:53:53.577Z,44.70
2018-12-18T09:56:22.951Z,48.33
2018-12-18T09:58:52.247Z,44.33
2018-12-18T10:01:21.492Z,38.57
2018-12-18T10:03:50.764Z,45.27
2018-12-18T10:06:20.157Z,43.17
2018-12-18T10:08:49.417Z,42.33
2018-12-18T10:11:18.655Z,49.07
2018-12-18T10:13:48.983Z,47.53
2018-12-18T10:16:19.452Z,42.20
2018-12-18T10:18:49.001Z,47.53
2018-12-18T10:21:18.409Z,38.20
2018-12-18T10:23:47.725Z,43.67
2018-12-18T10:26:17.036Z,42.00
2018-12-18T10:28:46.400Z,44.43
2018-12-18T10:31:15.787Z,38.97
2018-12-18T10:33:46.134Z,39.43
2018-12-18T10:36:16.134Z,37.30
2018-12-18T10:38:45.341Z,41.83
2018-12-18T10:41:14.631Z,37.20
2018-12-18T10:43:43.870Z,41.00
2018-12-18T10:46:14.244Z,43.10
2018-12-18T10:48:44.049Z,39.23
2018-12-18T10:51:13.278Z,38.73
2018-12-18T10:53:42.552Z,43.87
2018-12-18T10:56:12.562Z,39.13
2018-12-18T10:58:42.193Z,41.83
2018-12-18T11:01:18.448Z,40.83
2018-12-18T11:03:47.756Z,41.67
2018-12-18T11:06:17.672Z,39.57
2018-12-18T11:08:50.261Z,41.93
2018-12-18T11:11:19.590Z,42.27
2018-12-18T11:13:49.861Z,42.50
2018-12-18T11:16:19.638Z,38.87
2018-12-18T11:18:48.885Z,46.17
2018-12-18T11:21:18.162Z,44.63
2018-12-18T11:23:47.325Z,37.93
2018-12-18T11:26:16.784Z,42.93
2018-12-18T11:28:46.747Z,43.83
2018-12-18T11:31:16.021Z,39.63
2018-12-18T11:33:45.314Z,41.30
2018-12-18T11:36:16.663Z,41.73
2018-12-18T11:38:46.898Z,40.57
2018-12-18T11:41:16.481Z,42.37
2018-12-18T11:43:46.069Z,44.97
2018-12-18T11:46:15.386Z,36.60
2018-12-18T11:48:44.707Z,40.10
2018-12-18T11:51:14.113Z,43.40
2018-12-18T11:53:43.652Z,38.30
2018-12-18T11:56:13.147Z,43.37
2018-12-18T11:58:42.640Z,44.50
2018-12-18T12:01:13.863Z,43.63
2018-12-18T12:03:43.141Z,45.97
2018-12-18T12:06:12.372Z,40.73
2018-12-18T12:08:41.654Z,46.67
2018-12-18T12:11:10.909Z,40.77
2018-12-18T12:13:40.942Z,39.27
2018-12-18T12:16:10.487Z,38.23
2018-12-18T12:18:39.780Z,41.43
2018-12-18T12:21:09.045Z,40.03
2018-12-18T12:23:38.264Z,42.97
2018-12-18T12:26:12.804Z,46.40
2018-12-18T12:28:42.238Z,47.10
2018-12-18T12:31:12.595Z,48.83
2018-12-18T12:33:41.975Z,42.13
2018-12-18T12:36:11.279Z,43.27
2018-12-18T12:38:40.583Z,39.73
2018-12-18T12:41:09.810Z,41.27
2018-12-18T12:43:39.103Z,41.70
2018-12-18T12:46:08.416Z,40.40
2018-12-18T12:48:44.146Z,41.10
2018-12-18T12:51:13.367Z,42.90
2018-12-18T12:53:42.713Z,43.77
2018-12-18T12:56:11.975Z,47.07
2018-12-18T12:58:41.301Z,41.07
2018-12-18T13:01:10.552Z,43.30
2018-12-18T13:03:40.354Z,43.20
2018-12-18T13:06:09.586Z,40.17
2018-12-18T13:08:38.897Z,47.00
2018-12-18T13:11:08.155Z,43.03
2018-12-18T13:13:37.434Z,43.87
2018-12-18T13:16:08.446Z,46.17
2018-12-18T13:18:37.882Z,45.60
2018-12-18T13:21:07.102Z,45.07
2018-12-18T13:23:36.359Z,45.30
2018-12-18T13:26:06.904Z,38.03
2018-12-18T13:28:36.175Z,45.77
2018-12-18T13:31:05.423Z,42.93
2018-12-18T13:33:34.728Z,44.23
2018-12-18T13:36:04.926Z,44.40
2018-12-18T13:38:34.225Z,39.13
2018-12-18T13:41:03.567Z,44.53
2018-12-18T13:43:32.933Z,46.37
2018-12-18T13:46:02.223Z,47.13
2018-12-18T13:48:31.455Z,47.07
2018-12-18T13:51:00.757Z,47.27
2018-12-18T13:53:29.955Z,50.47
2018-12-18T13:55:59.263Z,42.27
2018-12-18T13:58:28.609Z,49.43
2018-12-18T14:00:57.791Z,45.67
2018-12-18T14:03:27.071Z,51.30
2018-12-18T14:05:56.282Z,44.60
2018-12-18T14:08:25.549Z,46.13
2018-12-18T14:10:55.561Z,46.80
2018-12-18T14:13:24.845Z,48.73
2018-12-18T14:15:54.128Z,49.13
2018-12-18T14:18:23.482Z,49.87
2018-12-18T14:20:52.764Z,53.10
2018-12-18T14:23:21.996Z,51.53
2018-12-18T14:25:51.293Z,57.17
2018-12-18T14:28:20.635Z,53.80
2018-12-18T14:30:50.373Z,56.53
2018-12-18T14:33:19.613Z,57.43
2018-12-18T14:35:48.943Z,49.77
2018-12-18T14:38:18.306Z,51.67
2018-12-18T14:40:48.627Z,53.27
2018-12-18T14:43:17.826Z,50.43
2018-12-18T14:45:48.310Z,61.97
2018-12-18T14:48:17.702Z,54.27
2018-12-18T14:50:47.684Z,57.10
2018-12-18T14:53:19.510Z,57.53
2018-12-18T14:55:48.746Z,50.83
2018-12-18T14:58:18.246Z,61.13
2018-12-18T15:00:50.600Z,61.87
2018-12-18T15:03:24.734Z,60.97
2018-12-18T15:05:59.292Z,62.10
2018-12-18T15:08:33.749Z,61.77
2018-12-18T15:11:03.123Z,66.90
2018-12-18T15:13:57.093Z,62.67
2018-12-18T15:16:31.980Z,61.87
2018-12-18T15:19:16.328Z,56.70
2018-12-18T15:21:47.278Z,63.47
2018-12-18T15:24:22.401Z,61.90
2018-12-18T15:26:53.232Z,56.33
2018-12-18T15:29:27.813Z,55.87
2018-12-18T15:32:01.283Z,61.50
2018-12-18T15:34:37.934Z,57.30
2018-12-18T15:37:16.302Z,58.60
2018-12-18T15:39:51.757Z,56.67
2018-12-18T15:42:21.005Z,63.77
2018-12-18T15:44:50.370Z,64.67
2018-12-18T15:47:19.759Z,61.10
2018-12-18T15:49:49.811Z,67.80
2018-12-18T15:52:19.008Z,69.40
2018-12-18T15:54:48.231Z,67.80
2018-12-18T15:57:17.590Z,66.13
2018-12-18T15:59:47.740Z,69.03
2018-12-18T16:02:17.073Z,59.13
2018-12-18T16:04:46.521Z,62.20
2018-12-18T16:07:16.242Z,57.90
2018-12-18T16:09:45.675Z,55.00
2018-12-18T16:12:15.003Z,57.17
2018-12-18T16:14:45.107Z,65.77
2018-12-18T16:17:15.959Z,68.93
2018-12-18T16:19:45.370Z,68.37
2018-12-18T16:22:14.608Z,63.60
2018-12-18T16:24:45.629Z,67.57
2018-12-18T16:27:14.864Z,62.10
2018-12-18T16:29:44.122Z,54.37
2018-12-18T16:32:20.252Z,58.27
2018-12-18T16:34:50.617Z,75.00
2018-12-18T16:37:23.231Z,61.80
2018-12-18T16:39:53.039Z,57.47
2018-12-18T16:42:28.884Z,59.93
2018-12-18T16:44:58.553Z,61.17
2018-12-18T16:47:29.965Z,48.97
2018-12-18T16:50:00.268Z,55.07
2018-12-18T16:52:29.596Z,56.43
2018-12-18T16:54:58.962Z,57.60
2018-12-18T16:57:47.754Z,56.13
2018-12-18T17:00:17.798Z,54.57
2018-12-18T17:02:47.041Z,57.37
2018-12-18T17:05:17.269Z,57.50
2018-12-18T17:07:46.544Z,54.93
2018-12-18T17:10:15.873Z,56.87
2018-12-18T17:12:50.375Z,56.30
2018-12-18T17:15:19.705Z,52.67
2018-12-18T17:17:49.022Z,52.83
2018-12-18T17:20:18.433Z,57.67
2018-12-18T17:22:47.746Z,49.87
2018-12-18T17:25:17.619Z,47.67
2018-12-18T17:27:47.049Z,46.57
2018-12-18T17:30:16.323Z,47.10
2018-12-18T17:32:45.699Z,55.90
2018-12-18T17:35:15.061Z,60.50
2018-12-18T17:37:46.238Z,38.63
2018-12-18T17:40:15.854Z,42.53
2018-12-18T17:42:45.069Z,34.37
2018-12-18T17:45:14.330Z,30.43
2018-12-18T17:47:43.649Z,28.60
2018-12-18T17:50:12.997Z,31.33
2018-12-18T17:52:42.397Z,31.83
2018-12-18T17:55:12.307Z,36.87
2018-12-18T17:57:43.789Z,31.73
2018-12-18T18:00:13.224Z,31.03
2018-12-18T18:02:42.478Z,37.07
2018-12-18T18:05:11.780Z,32.70
2018-12-18T18:07:43.157Z,34.17
2018-12-18T18:10:12.367Z,38.70
2018-12-18T18:12:41.591Z,40.33
2018-12-18T18:15:11.512Z,48.37
2018-12-18T18:17:40.859Z,43.00
2018-12-18T18:20:10.453Z,46.23
2018-12-18T18:22:40.165Z,46.93
2018-12-18T18:25:09.408Z,45.90
2018-12-18T18:27:38.623Z,51.53
2018-12-18T18:30:08.270Z,48.63
2018-12-18T18:32:38.134Z,48.37
2018-12-18T18:35:07.993Z,48.97
2018-12-18T18:37:37.375Z,49.63
2018-12-18T18:40:08.220Z,52.13
2018-12-18T18:42:38.377Z,48.10
2018-12-18T18:45:08.096Z,57.27
2018-12-18T18:47:37.439Z,53.07
2018-12-18T18:50:08.640Z,52.10
2018-12-18T18:52:37.978Z,58.57
2018-12-18T18:55:07.390Z,58.60
2018-12-18T18:57:36.641Z,55.97
2018-12-18T19:00:07.187Z,56.10
2018-12-18T19:02:36.601Z,62.57
2018-12-18T19:05:06.080Z,59.43
2018-12-18T19:07:35.305Z,59.83
2018-12-18T19:10:08.314Z,63.37
2018-12-18T19:12:38.419Z,64.10
2018-12-18T19:15:08.306Z,62.13
2018-12-18T19:17:38.554Z,62.87
2018-12-18T19:20:08.607Z,65.20
2018-12-18T19:22:38.242Z,66.77
2018-12-18T19:25:07.917Z,66.50
2018-12-18T19:27:37.876Z,56.37
2018-12-18T19:30:08.479Z,54.53
2018-12-18T19:32:38.067Z,54.43
2018-12-18T19:35:10.293Z,61.93
2018-12-18T19:37:40.277Z,62.07
2018-12-18T19:40:10.145Z,61.47
2018-12-18T19:42:41.226Z,56.50
2018-12-18T19:45:10.901Z,67.53
2018-12-18T19:47:40.340Z,71.07
2018-12-18T19:50:10.384Z,60.63
2018-12-18T19:52:41.415Z,59.67
2018-12-18T19:55:11.803Z,63.40
2018-12-18T19:57:41.194Z,70.30
2018-12-18T20:00:10.981Z,67.47
2018-12-18T20:02:40.500Z,60.13
2018-12-18T20:05:13.929Z,63.37
2018-12-18T20:07:43.318Z,65.60
2018-12-18T20:10:12.666Z,63.20
2018-12-18T20:12:41.974Z,71.90
2018-12-18T20:15:11.449Z,80.00
2018-12-18T20:17:40.881Z,78.77
2018-12-18T20:20:10.450Z,79.97
2018-12-18T20:22:40.068Z,74.40
2018-12-18T20:25:09.405Z,68.03
2018-12-18T20:27:38.679Z,63.00
2018-12-18T20:30:08.991Z,66.93
2018-12-18T20:32:38.529Z,67.80
2018-12-18T20:35:11.712Z,73.73
2018-12-18T20:37:43.379Z,80.33
2018-12-18T20:40:13.299Z,63.23
2018-12-18T20:42:43.425Z,80.03
2018-12-18T20:45:14.892Z,67.43
2018-12-18T20:47:57.742Z,82.13
2018-12-18T20:50:29.266Z,68.87
2018-12-18T20:55:56.693Z,60.07
2018-12-18T20:58:27.282Z,63.87
2018-12-18T21:01:00.412Z,61.60
2018-12-18T21:03:34.913Z,73.70
2018-12-18T21:06:08.575Z,74.30
2018-12-18T21:08:38.740Z,66.23
2018-12-18T21:11:14.039Z,72.90
2018-12-18T21:13:49.637Z,81.67
2018-12-18T21:16:21.008Z,68.33
2018-12-18T21:18:51.254Z,68.97
2018-12-18T21:21:21.174Z,71.33
2018-12-18T21:23:52.946Z,82.33
2018-12-18T21:29:06.213Z,85.70
2018-12-18T21:31:36.160Z,81.37
2018-12-18T21:34:07.092Z,75.63
2018-12-18T21:36:41.528Z,77.73
2018-12-18T21:39:11.996Z,78.77
2018-12-18T21:41:42.923Z,88.00
2018-12-18T21:44:13.112Z,91.50
2018-12-18T21:46:44.453Z,88.00
2018-12-18T21:49:14.072Z,78.70
2018-12-18T21:51:43.679Z,78.90
2018-12-18T21:54:12.944Z,74.40
2018-12-18T21:56:42.266Z,65.57
2018-12-18T21:59:11.642Z,73.07
2018-12-18T22:01:41.690Z,72.60
2018-12-18T22:04:11.761Z,78.93
2018-12-18T22:06:42.503Z,66.87
2018-12-18T22:09:12.454Z,76.77
2018-12-18T22:11:42.029Z,62.13
2018-12-18T22:14:15.010Z,71.57
2018-12-18T22:16:45.905Z,63.67
2018-12-18T22:19:15.198Z,65.53
2018-12-18T22:21:44.412Z,81.57
2018-12-18T22:24:14.613Z,69.47
2018-12-18T22:26:43.913Z,68.97
2018-12-18T22:29:13.158Z,65.27
2018-12-18T22:31:44.606Z,72.07
2018-12-18T22:34:14.917Z,62.30
2018-12-18T22:36:44.434Z,69.93
2018-12-18T22:39:13.781Z,55.30
2018-12-18T22:41:43.025Z,57.50
2018-12-18T22:44:12.410Z,58.27
2018-12-18T22:46:42.251Z,52.37
2018-12-18T22:49:12.506Z,64.33
2018-12-18T22:51:42.001Z,59.83
2018-12-18T22:54:11.827Z,54.07
2018-12-18T22:56:41.139Z,64.60
2018-12-18T22:59:10.385Z,56.90
2018-12-18T23:01:45.902Z,56.03
2018-12-18T23:04:16.138Z,55.17
2018-12-18T23:06:46.087Z,54.60
2018-12-18T23:09:17.010Z,56.23
2018-12-18T23:11:47.175Z,55.10
2018-12-18T23:14:16.502Z,60.67
2018-12-18T23:16:45.858Z,72.07
2018-12-18T23:19:15.489Z,61.00
2018-12-18T23:21:45.530Z,60.13
2018-12-18T23:24:15.304Z,60.57
2018-12-18T23:26:44.822Z,60.37
2018-12-18T23:29:15.172Z,57.43
2018-12-18T23:31:44.580Z,60.43
2018-12-18T23:34:14.060Z,70.77
2018-12-18T23:36:43.941Z,55.73
2018-12-18T23:39:13.769Z,59.83
2018-12-18T23:41:43.186Z,53.93
2018-12-18T23:44:12.463Z,54.33
2018-12-18T23:46:41.830Z,59.50
2018-12-18T23:49:11.291Z,50.53
2018-12-18T23:51:41.084Z,58.23
2018-12-18T23:54:10.487Z,56.20
2018-12-18T23:56:39.865Z,51.67
2018-12-18T23:59:10.045Z,54.47
